createdAt,value
2019-03-22T00:01:19.304Z,5.07
2019-03-22T00:03:50.042Z,5.12
2019-03-22T00:06:17.669Z,5.14
2019-03-22T00:08:45.337Z,5.15
2019-03-22T00:11:12.983Z,5.15
2019-03-22T00:13:43.226Z,5.11
2019-03-22T00:16:12.905Z,5.06
2019-03-22T00:18:40.540Z,5.03
2019-03-22T00:21:09.696Z,4.96
2019-03-22T00:23:37.320Z,4.93
2019-03-22T00:26:04.946Z,4.90
2019-03-22T00:28:32.575Z,4.86
2019-03-22T00:31:00.180Z,4.84
2019-03-22T00:33:27.803Z,4.81
2019-03-22T00:35:59.559Z,4.81
2019-03-22T00:38:27.169Z,4.74
2019-03-22T00:40:54.778Z,4.69
2019-03-22T00:43:24.726Z,4.68
2019-03-22T00:45:52.402Z,4.65
2019-03-22T00:48:20.135Z,4.63
2019-03-22T00:50:47.791Z,4.58
2019-03-22T00:53:15.455Z,4.55
2019-03-22T00:55:43.061Z,4.56
2019-03-22T00:58:10.678Z,4.55
2019-03-22T01:00:38.324Z,4.53
2019-03-22T01:03:05.953Z,4.48
2019-03-22T01:05:38.893Z,4.43
2019-03-22T01:08:06.544Z,4.40
2019-03-22T01:10:34.275Z,4.34
2019-03-22T01:13:02.981Z,4.30
2019-03-22T01:15:30.613Z,4.26
2019-03-22T01:17:58.290Z,4.22
2019-03-22T01:20:25.886Z,4.16
2019-03-22T01:22:53.748Z,4.14
2019-03-22T01:25:23.949Z,4.13
2019-03-22T01:27:53.594Z,4.11
2019-03-22T01:30:22.632Z,4.07
2019-03-22T01:32:52.937Z,4.04
2019-03-22T01:35:20.548Z,4.01
2019-03-22T01:37:48.161Z,3.98
2019-03-22T01:40:19.365Z,3.92
2019-03-22T01:42:49.479Z,3.88
2019-03-22T01:45:18.847Z,3.82
2019-03-22T01:47:46.448Z,3.75
2019-03-22T01:50:14.448Z,3.71
2019-03-22T01:52:42.078Z,3.68
2019-03-22T01:55:09.768Z,3.62
2019-03-22T01:57:37.387Z,3.59
2019-03-22T02:00:06.707Z,3.55
2019-03-22T02:02:34.631Z,3.51
2019-03-22T02:05:02.723Z,3.46
2019-03-22T02:07:30.336Z,3.42
2019-03-22T02:09:58.053Z,3.38
2019-03-22T02:12:25.698Z,3.36
2019-03-22T02:14:55.666Z,3.30
2019-03-22T02:17:24.631Z,3.25
2019-03-22T02:19:52.196Z,3.23
2019-03-22T02:22:21.935Z,3.21
2019-03-22T02:27:22.983Z,3.20
2019-03-22T02:29:50.645Z,3.18
2019-03-22T02:32:18.310Z,3.14
2019-03-22T02:34:47.827Z,3.11
2019-03-22T02:37:15.542Z,3.07
2019-03-22T02:39:46.263Z,3.04
2019-03-22T02:42:14.228Z,3.01
2019-03-22T02:44:41.821Z,2.97
2019-03-22T02:47:09.474Z,2.92
2019-03-22T02:49:38.811Z,2.88
2019-03-22T02:52:08.679Z,2.85
2019-03-22T02:54:36.324Z,2.80
2019-03-22T02:57:07.586Z,2.73
2019-03-22T02:59:35.214Z,2.64
2019-03-22T03:02:02.990Z,2.55
2019-03-22T03:04:30.586Z,2.48
2019-03-22T03:06:58.200Z,2.39
2019-03-22T03:09:25.987Z,2.33
2019-03-22T03:11:53.608Z,2.27
2019-03-22T03:14:21.217Z,2.22
2019-03-22T03:16:48.813Z,2.20
2019-03-22T03:19:16.419Z,2.17
2019-03-22T03:21:44.016Z,2.15
2019-03-22T03:24:11.659Z,2.11
2019-03-22T03:26:39.314Z,2.04
2019-03-22T03:29:06.918Z,1.98
2019-03-22T03:31:34.594Z,1.89
2019-03-22T03:34:02.254Z,1.84
2019-03-22T03:36:29.934Z,1.78
2019-03-22T03:39:00.053Z,1.74
2019-03-22T03:41:27.678Z,1.67
2019-03-22T03:43:55.276Z,1.61
2019-03-22T03:46:26.534Z,1.58
2019-03-22T03:48:54.135Z,1.54
2019-03-22T03:51:21.802Z,1.48
2019-03-22T03:53:49.577Z,1.43
2019-03-22T03:56:17.207Z,1.38
2019-03-22T03:58:52.371Z,1.37
2019-03-22T04:01:14.344Z,1.34
2019-03-22T04:03:41.943Z,1.32
2019-03-22T04:06:09.538Z,1.26
2019-03-22T04:08:37.138Z,1.22
2019-03-22T04:11:04.781Z,1.17
2019-03-22T04:13:32.408Z,1.13
2019-03-22T04:16:00.014Z,1.11
2019-03-22T04:18:27.613Z,1.10
2019-03-22T04:20:55.230Z,1.10
2019-03-22T04:23:22.852Z,1.10
2019-03-22T04:25:53.233Z,1.08
2019-03-22T04:28:20.868Z,1.03
2019-03-22T04:30:48.503Z,1.01
2019-03-22T04:33:16.157Z,0.98
2019-03-22T04:35:43.771Z,0.97
2019-03-22T04:38:11.424Z,0.94
2019-03-22T04:40:39.024Z,0.92
2019-03-22T04:43:06.735Z,0.89
2019-03-22T04:45:39.791Z,0.86
2019-03-22T04:48:23.031Z,0.84
2019-03-22T04:50:53.248Z,0.80
2019-03-22T04:53:26.339Z,0.77
2019-03-22T04:55:57.690Z,0.77
2019-03-22T04:58:27.025Z,0.75
2019-03-22T05:00:57.884Z,0.70
2019-03-22T05:03:26.616Z,0.70
2019-03-22T05:05:56.655Z,0.68
2019-03-22T05:08:26.351Z,0.68
2019-03-22T05:10:55.336Z,0.69
2019-03-22T05:13:24.354Z,0.69
2019-03-22T05:15:52.248Z,0.69
2019-03-22T05:18:23.394Z,0.66
2019-03-22T05:20:52.202Z,0.63
2019-03-22T05:23:22.623Z,0.59
2019-03-22T05:25:53.730Z,0.58
2019-03-22T05:28:23.082Z,0.57
2019-03-22T05:31:30.167Z,0.58
2019-03-22T05:33:57.797Z,0.59
2019-03-22T05:36:25.394Z,0.62
2019-03-22T05:38:52.984Z,0.63
2019-03-22T05:41:20.688Z,0.66
2019-03-22T05:43:48.384Z,0.66
2019-03-22T05:46:15.993Z,0.69
2019-03-22T05:48:46.598Z,0.74
2019-03-22T05:51:19.975Z,0.79
2019-03-22T05:53:47.664Z,0.83
2019-03-22T05:56:17.393Z,0.87
2019-03-22T05:58:45.004Z,0.91
2019-03-22T06:01:12.604Z,0.98
2019-03-22T06:03:40.234Z,1.04
2019-03-22T06:06:11.449Z,1.12
2019-03-22T06:08:39.081Z,1.19
2019-03-22T06:11:06.717Z,1.26
2019-03-22T06:13:34.367Z,1.32
2019-03-22T06:16:02.043Z,1.38
2019-03-22T06:18:31.788Z,1.42
2019-03-22T06:20:59.828Z,1.49
2019-03-22T06:23:27.522Z,1.56
2019-03-22T06:25:55.129Z,1.61
2019-03-22T06:28:22.778Z,1.68
2019-03-22T06:30:55.753Z,1.75
2019-03-22T06:33:23.382Z,1.79
2019-03-22T06:35:54.783Z,1.84
2019-03-22T06:38:22.463Z,1.90
2019-03-22T06:40:50.062Z,1.96
2019-03-22T06:43:17.669Z,2.02
2019-03-22T06:45:45.363Z,2.03
2019-03-22T06:48:12.963Z,2.07
2019-03-22T06:50:40.610Z,2.12
2019-03-22T06:53:08.238Z,2.16
2019-03-22T06:55:35.829Z,2.21
2019-03-22T06:58:03.461Z,2.27
2019-03-22T07:00:31.069Z,2.32
2019-03-22T07:02:58.734Z,2.37
2019-03-22T07:05:27.538Z,2.42
2019-03-22T07:07:55.130Z,2.49
2019-03-22T07:10:25.500Z,2.57
2019-03-22T07:12:53.095Z,2.61
2019-03-22T07:15:20.750Z,2.67
2019-03-22T07:17:48.372Z,2.71
2019-03-22T07:20:16.103Z,2.76
2019-03-22T07:22:43.705Z,2.81
2019-03-22T07:25:11.445Z,2.88
2019-03-22T07:27:39.074Z,2.95
2019-03-22T07:30:18.093Z,3.02
2019-03-22T07:32:36.756Z,3.08
2019-03-22T07:35:04.375Z,3.14
2019-03-22T07:37:32.025Z,3.19
2019-03-22T07:39:59.625Z,3.27
2019-03-22T07:42:28.095Z,3.33
2019-03-22T07:44:55.717Z,3.40
2019-03-22T07:47:23.354Z,3.46
2019-03-22T07:49:51.172Z,3.56
2019-03-22T07:52:19.926Z,3.66
2019-03-22T07:54:47.537Z,3.80
2019-03-22T07:57:15.610Z,3.93
2019-03-22T07:59:45.519Z,4.04
2019-03-22T08:02:13.228Z,4.21
2019-03-22T08:04:40.841Z,4.51
2019-03-22T08:07:08.472Z,5.10
2019-03-22T08:09:36.098Z,5.97
2019-03-22T08:12:03.803Z,7.28
2019-03-22T08:14:33.960Z,8.52
2019-03-22T08:17:01.563Z,9.13
2019-03-22T08:19:29.165Z,9.98
2019-03-22T08:21:57.011Z,10.79
2019-03-22T08:24:24.601Z,11.34
2019-03-22T08:26:52.183Z,11.30
2019-03-22T08:29:19.819Z,11.67
2019-03-22T08:31:47.421Z,11.56
2019-03-22T08:34:15.090Z,11.60
2019-03-22T08:36:42.727Z,11.48
2019-03-22T08:39:10.426Z,11.08
2019-03-22T08:41:38.117Z,11.10
2019-03-22T08:44:05.803Z,10.68
2019-03-22T08:46:33.367Z,10.24
2019-03-22T08:49:01.072Z,9.91
2019-03-22T08:51:30.043Z,9.78
2019-03-22T08:53:57.777Z,9.54
2019-03-22T08:56:25.431Z,9.16
2019-03-22T08:58:53.030Z,8.95
2019-03-22T09:01:20.620Z,8.88
2019-03-22T09:03:48.335Z,8.97
2019-03-22T09:06:16.002Z,8.83
2019-03-22T09:08:44.049Z,8.66
2019-03-22T09:11:11.641Z,8.57
2019-03-22T09:13:39.265Z,8.34
2019-03-22T09:16:06.859Z,8.40
2019-03-22T09:18:34.504Z,8.42
2019-03-22T09:21:02.192Z,8.25
2019-03-22T09:23:29.746Z,8.17
2019-03-22T09:25:57.430Z,8.00
2019-03-22T09:28:26.801Z,7.90
2019-03-22T09:30:54.411Z,8.02
2019-03-22T09:33:22.053Z,8.00
2019-03-22T09:35:49.723Z,8.05
2019-03-22T09:38:17.341Z,8.06
2019-03-22T09:40:44.988Z,8.08
2019-03-22T09:43:12.606Z,8.16
2019-03-22T09:45:40.250Z,8.16
2019-03-22T09:48:07.941Z,8.14
2019-03-22T09:50:35.531Z,8.14
2019-03-22T09:53:03.152Z,8.21
2019-03-22T09:55:30.713Z,8.07
2019-03-22T09:57:58.474Z,8.06
2019-03-22T10:00:30.914Z,8.11
2019-03-22T10:02:58.692Z,8.19
2019-03-22T10:05:26.364Z,8.24
2019-03-22T10:07:56.723Z,8.26
2019-03-22T10:10:24.412Z,8.36
2019-03-22T10:12:52.064Z,8.57
2019-03-22T10:15:19.693Z,8.65
2019-03-22T10:17:49.533Z,8.72
2019-03-22T10:20:17.186Z,8.87
2019-03-22T10:22:44.821Z,9.04
2019-03-22T10:25:12.452Z,8.96
2019-03-22T10:27:40.104Z,8.88
2019-03-22T10:30:10.668Z,8.92
2019-03-22T10:32:38.338Z,9.04
2019-03-22T10:35:06.127Z,8.99
2019-03-22T10:37:33.787Z,9.11
2019-03-22T10:40:01.416Z,9.19
2019-03-22T10:42:30.874Z,9.21
2019-03-22T10:45:05.806Z,9.26
2019-03-22T10:47:33.408Z,9.29
2019-03-22T10:50:01.048Z,9.37
2019-03-22T10:52:28.745Z,9.47
2019-03-22T10:54:56.338Z,9.63
2019-03-22T10:57:24.007Z,9.84
2019-03-22T10:59:51.738Z,10.10
2019-03-22T11:02:19.350Z,10.21
2019-03-22T11:04:46.984Z,10.21
2019-03-22T11:07:14.588Z,10.20
2019-03-22T11:09:42.240Z,10.21
2019-03-22T11:12:12.440Z,10.24
2019-03-22T11:14:39.365Z,10.26
2019-03-22T11:17:06.969Z,10.32
2019-03-22T11:19:34.631Z,10.29
2019-03-22T11:22:02.243Z,10.35
2019-03-22T11:24:29.861Z,10.42
2019-03-22T11:26:57.449Z,10.41
2019-03-22T11:29:25.058Z,10.33
2019-03-22T11:31:52.684Z,10.28
2019-03-22T11:34:20.294Z,10.35
2019-03-22T11:36:47.945Z,10.48
2019-03-22T11:39:16.184Z,10.66
2019-03-22T11:41:46.973Z,10.84
2019-03-22T11:44:15.879Z,10.92
2019-03-22T11:46:43.519Z,10.88
2019-03-22T11:49:11.125Z,10.74
2019-03-22T11:51:40.258Z,10.79
2019-03-22T11:54:08.126Z,10.97
2019-03-22T11:56:38.764Z,11.04
2019-03-22T11:59:06.369Z,10.95
2019-03-22T12:01:36.025Z,10.94
2019-03-22T12:04:03.708Z,11.12
2019-03-22T12:06:31.306Z,11.14
2019-03-22T12:08:58.955Z,11.06
2019-03-22T12:11:26.569Z,10.95
2019-03-22T12:13:54.177Z,10.96
2019-03-22T12:16:21.785Z,10.95
2019-03-22T12:18:50.423Z,11.03
2019-03-22T12:21:20.307Z,11.10
2019-03-22T12:23:47.901Z,11.08
2019-03-22T12:26:15.544Z,11.10
2019-03-22T12:28:43.175Z,11.13
2019-03-22T12:31:10.779Z,11.22
2019-03-22T12:33:38.435Z,11.22
2019-03-22T12:36:06.096Z,11.10
2019-03-22T12:38:33.712Z,10.91
2019-03-22T12:41:01.350Z,10.89
2019-03-22T12:43:28.973Z,10.89
2019-03-22T12:45:56.619Z,10.92
2019-03-22T12:48:24.222Z,10.94
2019-03-22T12:50:51.937Z,10.94
2019-03-22T12:53:19.249Z,10.94
2019-03-22T12:55:48.669Z,10.94
2019-03-22T12:58:16.385Z,10.87
2019-03-22T13:00:44.006Z,10.81
2019-03-22T13:03:11.621Z,10.72
2019-03-22T13:05:39.246Z,10.58
2019-03-22T13:08:06.899Z,10.50
2019-03-22T13:10:36.816Z,10.47
2019-03-22T13:13:04.430Z,10.45
2019-03-22T13:15:32.038Z,10.47
2019-03-22T13:17:59.641Z,10.47
2019-03-22T13:20:27.250Z,10.42
2019-03-22T13:22:54.842Z,10.38
2019-03-22T13:25:22.457Z,10.39
2019-03-22T13:27:50.073Z,10.47
2019-03-22T13:30:34.246Z,10.57
2019-03-22T13:33:01.957Z,10.63
2019-03-22T13:35:29.577Z,10.73
2019-03-22T13:37:57.184Z,10.70
2019-03-22T13:40:24.797Z,10.72
2019-03-22T13:42:52.441Z,10.75
2019-03-22T13:45:20.061Z,10.78
2019-03-22T13:47:47.669Z,10.84
2019-03-22T13:50:15.309Z,10.88
2019-03-22T13:52:43.025Z,10.93
2019-03-22T13:55:10.613Z,10.94
2019-03-22T13:57:38.326Z,10.89
2019-03-22T14:00:07.408Z,10.91
2019-03-22T14:02:35.073Z,10.96
2019-03-22T14:05:03.001Z,11.00
2019-03-22T14:07:30.618Z,11.03
2019-03-22T14:09:58.232Z,11.05
2019-03-22T14:12:25.893Z,11.06
2019-03-22T14:14:53.502Z,11.06
2019-03-22T14:17:21.098Z,11.08
2019-03-22T14:19:48.702Z,11.08
2019-03-22T14:22:16.310Z,11.10
2019-03-22T14:24:43.910Z,11.13
2019-03-22T14:27:11.576Z,11.06
2019-03-22T14:29:39.165Z,11.06
2019-03-22T14:32:07.918Z,11.04
2019-03-22T14:34:35.679Z,11.01
2019-03-22T14:37:03.280Z,11.01
2019-03-22T14:39:30.882Z,10.99
2019-03-22T14:42:01.775Z,10.92
2019-03-22T14:44:31.876Z,10.84
2019-03-22T14:46:59.482Z,10.84
2019-03-22T14:49:27.127Z,10.66
2019-03-22T14:51:57.435Z,10.57
2019-03-22T14:54:25.056Z,10.44
2019-03-22T14:56:52.670Z,10.43
2019-03-22T14:59:20.268Z,10.36
2019-03-22T15:01:47.870Z,10.31
2019-03-22T15:04:15.521Z,10.06
2019-03-22T15:06:43.146Z,9.89
2019-03-22T15:09:10.765Z,9.79
2019-03-22T15:11:38.444Z,9.87
2019-03-22T15:14:12.994Z,9.80
2019-03-22T15:16:52.841Z,9.62
2019-03-22T15:19:37.010Z,9.54
2019-03-22T15:22:29.979Z,9.41
2019-03-22T15:25:15.787Z,9.23
2019-03-22T15:28:15.218Z,9.07
2019-03-22T15:31:00.943Z,8.90
2019-03-22T15:33:48.467Z,8.77
2019-03-22T15:36:34.416Z,8.64
2019-03-22T15:39:30.952Z,8.57
2019-03-22T15:41:58.766Z,8.46
2019-03-22T15:44:26.425Z,8.33
2019-03-22T15:46:54.080Z,8.22
2019-03-22T15:49:21.651Z,8.02
2019-03-22T15:51:49.489Z,7.92
2019-03-22T15:54:17.102Z,7.78
2019-03-22T15:56:44.722Z,7.77
2019-03-22T15:59:12.379Z,7.73
2019-03-22T16:01:42.463Z,7.62
2019-03-22T16:04:10.127Z,7.57
2019-03-22T16:06:37.700Z,7.43
2019-03-22T16:09:06.959Z,7.37
2019-03-22T16:11:37.358Z,7.28
2019-03-22T16:14:05.214Z,7.16
2019-03-22T16:16:32.834Z,7.03
2019-03-22T16:19:00.446Z,7.00
2019-03-22T16:21:28.046Z,6.90
2019-03-22T16:23:55.655Z,6.80
2019-03-22T16:26:23.274Z,6.75
2019-03-22T16:28:50.922Z,6.68
2019-03-22T16:31:18.853Z,6.65
2019-03-22T16:33:53.998Z,6.63
2019-03-22T16:36:16.148Z,6.59
2019-03-22T16:38:45.171Z,6.55
2019-03-22T16:41:12.775Z,6.47
2019-03-22T16:43:40.586Z,6.45
2019-03-22T16:46:08.182Z,6.44
2019-03-22T16:48:35.805Z,6.39
2019-03-22T16:51:03.544Z,6.33
2019-03-22T16:53:31.166Z,6.27
2019-03-22T16:55:58.800Z,6.22
2019-03-22T16:58:26.415Z,6.15
2019-03-22T17:00:54.032Z,6.13
2019-03-22T17:03:21.629Z,6.11
2019-03-22T17:05:49.268Z,6.01
2019-03-22T17:08:16.875Z,6.00
2019-03-22T17:10:44.934Z,6.02
2019-03-22T17:13:12.871Z,5.96
2019-03-22T17:15:43.408Z,5.98
2019-03-22T17:18:11.243Z,5.95
2019-03-22T17:20:41.272Z,5.90
2019-03-22T17:23:08.913Z,5.85
2019-03-22T17:25:39.080Z,5.68
2019-03-22T17:28:06.699Z,5.68
2019-03-22T17:30:36.843Z,5.68
2019-03-22T17:33:04.585Z,5.72
2019-03-22T17:35:32.204Z,5.68
2019-03-22T17:37:59.850Z,5.62
2019-03-22T17:40:27.438Z,5.54
2019-03-22T17:42:55.043Z,5.50
2019-03-22T17:45:22.643Z,5.48
2019-03-22T17:47:50.251Z,5.42
2019-03-22T17:50:18.153Z,5.37
2019-03-22T17:52:45.748Z,5.41
2019-03-22T17:55:14.065Z,5.40
2019-03-22T17:57:41.668Z,5.39
2019-03-22T18:00:09.351Z,5.39
2019-03-22T18:02:36.957Z,5.35
2019-03-22T18:05:05.472Z,5.33
2019-03-22T18:07:33.067Z,5.34
2019-03-22T18:10:00.696Z,5.29
2019-03-22T18:12:28.300Z,5.34
2019-03-22T18:14:55.929Z,5.32
2019-03-22T18:17:23.527Z,5.26
2019-03-22T18:19:51.133Z,5.32
2019-03-22T18:22:18.740Z,5.35
2019-03-22T18:24:46.356Z,5.35
2019-03-22T18:27:13.987Z,5.39
2019-03-22T18:29:41.578Z,5.34
2019-03-22T18:32:09.174Z,5.34
2019-03-22T18:34:37.605Z,5.36
2019-03-22T18:37:05.354Z,5.37
2019-03-22T18:39:32.988Z,5.30
2019-03-22T18:42:01.518Z,5.29
2019-03-22T18:44:29.144Z,5.34
2019-03-22T18:46:56.779Z,5.29
2019-03-22T18:49:24.424Z,5.30
2019-03-22T18:51:52.019Z,5.22
2019-03-22T18:54:19.637Z,5.16
2019-03-22T18:56:47.255Z,5.16
2019-03-22T18:59:14.906Z,5.13
2019-03-22T19:01:42.519Z,5.11
2019-03-22T19:04:10.124Z,5.09
2019-03-22T19:06:37.718Z,5.09
2019-03-22T19:09:06.732Z,5.03
2019-03-22T19:11:34.334Z,5.05
2019-03-22T19:14:01.940Z,5.05
2019-03-22T19:16:29.562Z,5.07
2019-03-22T19:18:57.151Z,5.01
2019-03-22T19:21:24.748Z,5.06
2019-03-22T19:23:52.349Z,5.04
2019-03-22T19:26:19.943Z,5.02
2019-03-22T19:28:47.571Z,5.05
2019-03-22T19:31:15.217Z,4.99
2019-03-22T19:33:42.806Z,5.06
2019-03-22T19:36:10.406Z,5.05
2019-03-22T19:38:38.024Z,5.07
2019-03-22T19:41:05.626Z,5.14
2019-03-22T19:43:33.211Z,5.11
2019-03-22T19:46:00.815Z,5.08
2019-03-22T19:48:28.437Z,5.05
2019-03-22T19:50:56.039Z,5.06
2019-03-22T19:53:23.645Z,5.13
2019-03-22T19:55:51.247Z,5.17
2019-03-22T19:58:18.854Z,5.20
2019-03-22T20:00:46.479Z,5.19
2019-03-22T20:03:14.098Z,5.19
2019-03-22T20:05:41.699Z,5.21
2019-03-22T20:08:12.788Z,5.25
2019-03-22T20:10:38.840Z,5.26
2019-03-22T20:13:06.467Z,5.24
2019-03-22T20:15:34.070Z,5.19
2019-03-22T20:18:01.667Z,5.15
2019-03-22T20:20:29.258Z,5.19
2019-03-22T20:22:56.853Z,5.17
2019-03-22T20:25:24.467Z,5.17
2019-03-22T20:27:52.079Z,5.19
2019-03-22T20:30:20.211Z,5.21
2019-03-22T20:32:47.961Z,5.19
2019-03-22T20:35:17.078Z,5.19
2019-03-22T20:37:44.911Z,5.20
2019-03-22T20:40:12.950Z,5.20
2019-03-22T20:42:40.542Z,5.21
2019-03-22T20:45:09.055Z,5.25
2019-03-22T20:47:36.666Z,5.20
2019-03-22T20:50:04.467Z,5.23
2019-03-22T20:52:32.024Z,5.24
2019-03-22T20:54:59.630Z,5.23
2019-03-22T20:57:27.241Z,5.19
2019-03-22T20:59:54.849Z,5.17
2019-03-22T21:02:22.471Z,5.24
2019-03-22T21:04:50.097Z,5.22
2019-03-22T21:07:17.892Z,5.23
2019-03-22T21:09:45.464Z,5.19
2019-03-22T21:12:13.090Z,5.22
2019-03-22T21:14:40.706Z,5.22
2019-03-22T21:17:08.331Z,5.21
2019-03-22T21:19:35.939Z,5.25
2019-03-22T21:22:06.333Z,5.22
2019-03-22T21:24:33.975Z,5.22
2019-03-22T21:27:01.681Z,5.22
2019-03-22T21:29:29.312Z,5.19
2019-03-22T21:31:56.919Z,5.17
2019-03-22T21:34:24.591Z,5.15
2019-03-22T21:36:52.193Z,5.18
2019-03-22T21:39:19.788Z,5.17
2019-03-22T21:41:47.448Z,5.12
2019-03-22T21:44:15.323Z,5.17
2019-03-22T21:46:42.919Z,5.12
2019-03-22T21:49:10.562Z,5.15
2019-03-22T21:51:38.410Z,5.17
2019-03-22T21:54:06.029Z,5.14
2019-03-22T21:56:33.745Z,5.14
2019-03-22T21:59:01.384Z,5.16
2019-03-22T22:01:28.988Z,5.15
2019-03-22T22:03:56.579Z,5.13
2019-03-22T22:06:24.173Z,5.12
2019-03-22T22:08:51.785Z,5.10
2019-03-22T22:11:19.391Z,5.13
2019-03-22T22:13:47.006Z,5.11
2019-03-22T22:16:14.607Z,5.06
2019-03-22T22:18:42.211Z,4.98
2019-03-22T22:21:09.822Z,4.91
2019-03-22T22:23:37.469Z,4.93
2019-03-22T22:26:05.026Z,4.91
2019-03-22T22:28:32.628Z,4.91
2019-03-22T22:31:00.415Z,4.90
2019-03-22T22:33:28.185Z,4.90
2019-03-22T22:35:58.790Z,4.87
2019-03-22T22:38:25.568Z,4.83
2019-03-22T22:40:53.160Z,4.79
2019-03-22T22:43:20.792Z,4.83
2019-03-22T22:45:48.383Z,4.84
2019-03-22T22:48:16.024Z,4.86
2019-03-22T22:50:43.607Z,4.86
2019-03-22T22:53:11.196Z,4.89
2019-03-22T22:55:38.853Z,4.89
2019-03-22T22:58:06.447Z,4.91
2019-03-22T23:00:34.572Z,4.92
2019-03-22T23:03:02.177Z,4.90
2019-03-22T23:05:29.774Z,4.91
2019-03-22T23:07:57.373Z,4.92
2019-03-22T23:10:25.161Z,4.94
2019-03-22T23:12:52.846Z,4.93
2019-03-22T23:15:20.486Z,4.95
2019-03-22T23:17:48.089Z,4.94
2019-03-22T23:20:15.755Z,4.93
2019-03-22T23:22:43.360Z,4.96
2019-03-22T23:25:11.058Z,4.97
2019-03-22T23:27:38.660Z,4.99
2019-03-22T23:30:07.353Z,5.03
2019-03-22T23:32:35.100Z,5.03
2019-03-22T23:35:03.108Z,5.01
2019-03-22T23:37:30.696Z,5.09
2019-03-22T23:39:58.308Z,5.12
2019-03-22T23:42:26.182Z,5.13
2019-03-22T23:44:54.149Z,5.13
2019-03-22T23:47:21.726Z,5.15
2019-03-22T23:49:49.315Z,5.18
2019-03-22T23:52:17.154Z,5.17
2019-03-22T23:54:44.867Z,5.20
2019-03-22T23:57:12.501Z,5.19
2019-03-22T23:59:40.363Z,5.15
